createdAt,value
2022-08-01T00:02:44.940Z,18.34
2022-08-01T00:07:17.963Z,18.31
2022-08-01T00:16:10.081Z,18.27
2022-08-01T00:20:36.349Z,18.25
2022-08-01T00:25:09.418Z,18.24
2022-08-01T00:30:09.501Z,18.20
2022-08-01T00:34:30.119Z,18.19
2022-08-01T00:39:03.020Z,18.17
2022-08-01T00:43:35.822Z,18.12
2022-08-01T00:48:08.461Z,18.09
2022-08-01T00:52:21.409Z,18.08
2022-08-01T00:56:54.538Z,18.07
2022-08-01T01:01:19.953Z,18.05
2022-08-01T01:10:47.979Z,17.95
2022-08-01T01:15:20.725Z,17.87
2022-08-01T01:19:51.918Z,17.76
2022-08-01T01:25:15.471Z,17.66
2022-08-01T01:30:01.161Z,17.58
2022-08-01T01:34:47.136Z,17.49
2022-08-01T01:39:20.630Z,17.43
2022-08-01T01:43:41.361Z,17.40
2022-08-01T01:53:20.082Z,17.40
2022-08-01T01:57:53.237Z,17.40
2022-08-01T02:02:26.485Z,17.38
2022-08-01T02:07:00.025Z,17.39
2022-08-01T02:12:07.671Z,17.37
2022-08-01T02:16:41.284Z,17.35
2022-08-01T02:21:27.708Z,17.35
2022-08-01T02:26:12.795Z,17.35
2022-08-01T02:30:59.297Z,17.32
2022-08-01T02:35:24.764Z,17.28
2022-08-01T02:39:58.945Z,17.26
2022-08-01T02:44:45.381Z,17.23
2022-08-01T02:49:18.727Z,17.22
2022-08-01T02:53:44.210Z,17.19
2022-08-01T02:58:16.580Z,17.14
2022-08-01T03:02:59.009Z,17.12
2022-08-01T03:07:34.712Z,17.13
2022-08-01T03:12:13.560Z,17.15
2022-08-01T03:16:59.822Z,17.17
2022-08-01T03:21:44.758Z,17.19
2022-08-01T03:26:31.200Z,17.19
2022-08-01T03:30:57.721Z,17.18
2022-08-01T03:35:30.781Z,17.15
2022-08-01T03:40:17.660Z,17.13
2022-08-01T03:45:09.123Z,17.12
2022-08-01T03:54:46.949Z,17.14
2022-08-01T03:59:33.746Z,17.15
2022-08-01T04:04:20.224Z,17.17
2022-08-01T04:08:53.446Z,17.20
2022-08-01T04:13:29.251Z,17.22
2022-08-01T04:18:23.382Z,17.27
2022-08-01T04:23:10.060Z,17.35
2022-08-01T04:27:49.091Z,17.41
2022-08-01T04:32:37.185Z,17.47
2022-08-01T04:37:18.209Z,17.52
2022-08-01T04:42:04.795Z,17.55
2022-08-01T04:46:38.181Z,17.57
2022-08-01T04:51:19.343Z,17.61
2022-08-01T04:55:53.728Z,17.67
2022-08-01T05:00:17.679Z,17.75
2022-08-01T05:05:04.361Z,17.84
2022-08-01T05:09:37.287Z,17.91
2022-08-01T05:18:50.443Z,18.07
2022-08-01T05:23:36.540Z,18.11
2022-08-01T05:28:28.168Z,18.18
2022-08-01T05:32:56.524Z,18.29
2022-08-01T05:37:21.576Z,18.40
2022-08-01T05:42:06.583Z,18.49
2022-08-01T05:46:17.114Z,18.68
2022-08-01T05:52:02.361Z,19.33
2022-08-01T05:56:35.424Z,19.90
2022-08-01T06:00:59.568Z,20.24
2022-08-01T06:05:13.430Z,20.38
2022-08-01T06:09:26.104Z,20.46
2022-08-01T06:18:18.747Z,20.33
2022-08-01T06:22:45.511Z,20.32
2022-08-01T06:27:21.317Z,20.36
2022-08-01T06:31:38.039Z,20.51
2022-08-01T06:35:50.390Z,20.80
2022-08-01T06:40:17.549Z,21.22
2022-08-01T06:44:43.812Z,21.66
2022-08-01T06:48:51.478Z,22.14
2022-08-01T06:53:24.601Z,22.33
2022-08-01T06:57:27.408Z,22.47
2022-08-01T07:02:00.236Z,22.83
2022-08-01T07:06:33.590Z,23.16
2022-08-01T07:11:08.943Z,23.29
2022-08-01T07:15:41.887Z,23.22
2022-08-01T07:20:50.216Z,23.05
2022-08-01T07:25:39.656Z,22.86
2022-08-01T07:30:24.806Z,22.75
2022-08-01T07:35:01.840Z,22.69
2022-08-01T07:39:49.703Z,22.68
2022-08-01T07:44:23.079Z,22.67
2022-08-01T07:49:06.384Z,22.79
2022-08-01T07:54:06.468Z,22.94
2022-08-01T07:58:33.963Z,23.34
2022-08-01T08:03:07.576Z,23.89
2022-08-01T08:12:05.302Z,24.79
2022-08-01T08:16:33.532Z,25.11
2022-08-01T08:21:07.009Z,25.34
2022-08-01T08:25:53.683Z,25.52
2022-08-01T08:30:26.990Z,25.72
2022-08-01T08:35:06.784Z,25.86
2022-08-01T08:39:44.088Z,25.98
2022-08-01T08:44:17.220Z,25.99
2022-08-01T08:48:50.552Z,25.97
2022-08-01T08:53:18.610Z,25.95
2022-08-01T08:57:52.136Z,26.10
2022-08-01T09:02:24.921Z,26.15
2022-08-01T09:06:47.378Z,26.09
2022-08-01T09:11:12.441Z,26.13
2022-08-01T09:15:46.747Z,26.30
2022-08-01T09:20:20.951Z,26.57
2022-08-01T09:24:57.014Z,26.79
2022-08-01T09:29:40.948Z,27.02
2022-08-01T09:34:05.845Z,27.23
2022-08-01T09:38:25.712Z,27.43
2022-08-01T09:43:24.219Z,27.65
2022-08-01T09:47:56.081Z,27.90
2022-08-01T09:52:21.303Z,28.08
2022-08-01T09:56:52.732Z,28.27
2022-08-01T10:01:15.193Z,28.42
2022-08-01T10:05:46.787Z,28.48
2022-08-01T10:10:08.981Z,28.55
2022-08-01T10:14:57.393Z,28.69
2022-08-01T10:19:24.614Z,28.77
2022-08-01T10:23:48.846Z,28.85
2022-08-01T10:28:24.458Z,28.83
2022-08-01T10:32:50.934Z,28.90
2022-08-01T10:37:10.153Z,28.90
2022-08-01T10:41:56.611Z,28.90
2022-08-01T10:46:24.039Z,28.99
2022-08-01T10:51:18.035Z,29.10
2022-08-01T10:55:44.462Z,29.08
2022-08-01T11:00:18.870Z,29.04
2022-08-01T11:04:38.684Z,29.08
2022-08-01T11:09:11.986Z,28.99
2022-08-01T11:13:34.468Z,29.02
2022-08-01T11:18:12.535Z,29.08
2022-08-01T11:23:03.012Z,29.15
2022-08-01T11:27:11.926Z,29.22
2022-08-01T11:31:45.723Z,29.20
2022-08-01T11:35:55.534Z,29.20
2022-08-01T11:40:06.632Z,29.16
2022-08-01T11:44:30.614Z,29.20
2022-08-01T11:48:49.226Z,29.14
2022-08-01T11:53:26.870Z,29.04
2022-08-01T11:57:52.784Z,28.85
2022-08-01T12:01:41.256Z,28.75
2022-08-01T12:07:10.600Z,28.56
2022-08-01T12:11:32.546Z,28.52
2022-08-01T12:15:43.698Z,28.56
2022-08-01T12:20:19.620Z,28.49
2022-08-01T12:24:41.603Z,28.43
2022-08-01T12:28:06.797Z,28.35
2022-08-01T12:32:38.342Z,28.34
2022-08-01T12:38:03.307Z,28.50
2022-08-01T12:42:17.384Z,28.44
2022-08-01T12:48:02.645Z,28.35
2022-08-01T12:52:29.982Z,28.23
2022-08-01T12:57:02.948Z,28.10
2022-08-01T13:01:35.990Z,28.09
2022-08-01T13:06:00.628Z,27.97
2022-08-01T13:10:13.950Z,27.83
2022-08-01T13:15:58.941Z,27.79
2022-08-01T13:20:44.950Z,27.83
2022-08-01T13:25:27.548Z,27.75
2022-08-01T13:30:12.466Z,27.57
2022-08-01T13:34:58.678Z,27.49
2022-08-01T13:39:12.424Z,27.48
2022-08-01T13:43:25.105Z,27.51
2022-08-01T13:52:33.721Z,26.92
2022-08-01T13:56:48.841Z,26.93
2022-08-01T14:01:03.051Z,27.06
2022-08-01T14:05:47.010Z,27.11
2022-08-01T14:10:24.660Z,27.07
2022-08-01T14:14:42.082Z,27.08
2022-08-01T14:19:13.127Z,27.09
2022-08-01T14:23:38.964Z,26.77
2022-08-01T14:28:18.321Z,26.68
2022-08-01T14:32:56.340Z,26.74
2022-08-01T14:37:42.419Z,26.79
2022-08-01T14:42:15.921Z,26.73
2022-08-01T14:46:57.908Z,26.40
2022-08-01T14:51:45.157Z,26.33
2022-08-01T15:01:10.611Z,26.06
2022-08-01T15:05:40.774Z,25.91
2022-08-01T15:10:08.038Z,25.77
2022-08-01T15:14:53.423Z,25.53
2022-08-01T15:19:33.601Z,25.48
2022-08-01T15:24:03.303Z,25.50
2022-08-01T15:28:35.971Z,25.47
2022-08-01T15:33:08.632Z,25.36
2022-08-01T15:37:28.711Z,25.13
2022-08-01T15:42:03.020Z,24.84
2022-08-01T15:46:19.707Z,24.73
2022-08-01T15:50:45.052Z,24.68
2022-08-01T15:55:18.012Z,24.64
2022-08-01T15:59:59.278Z,24.57
2022-08-01T16:03:58.411Z,24.49
2022-08-01T16:08:30.908Z,24.29
2022-08-01T16:12:25.712Z,24.05
2022-08-01T16:16:59.039Z,23.95
2022-08-01T16:21:47.753Z,23.89
2022-08-01T16:26:26.994Z,23.73
2022-08-01T16:31:20.358Z,23.62
2022-08-01T16:41:03.599Z,23.39
2022-08-01T16:45:46.781Z,23.29
2022-08-01T16:50:27.950Z,23.28
2022-08-01T16:55:15.586Z,23.19
2022-08-01T16:59:48.891Z,23.08
2022-08-01T17:09:06.828Z,22.94
2022-08-01T17:13:25.934Z,22.86
2022-08-01T17:17:58.784Z,22.77
2022-08-01T17:22:32.184Z,22.66
2022-08-01T17:27:18.722Z,22.64
2022-08-01T17:31:52.051Z,22.61
2022-08-01T17:36:38.671Z,22.62
2022-08-01T17:41:23.380Z,22.59
2022-08-01T17:46:10.400Z,22.49
2022-08-01T17:50:42.939Z,22.41
2022-08-01T17:55:54.052Z,22.37
2022-08-01T18:00:04.242Z,22.33
2022-08-01T18:04:10.969Z,22.32
2022-08-01T18:09:01.826Z,22.32
2022-08-01T18:13:35.161Z,22.35
2022-08-01T18:18:08.711Z,22.39
2022-08-01T18:22:42.379Z,22.39
2022-08-01T18:28:22.406Z,22.40
2022-08-01T18:32:22.231Z,22.38
2022-08-01T18:36:42.931Z,22.38
2022-08-01T18:42:03.421Z,22.35
2022-08-01T18:51:16.515Z,22.24
2022-08-01T18:55:49.830Z,22.19
2022-08-01T19:00:22.492Z,22.13
2022-08-01T19:04:41.892Z,22.09
2022-08-01T19:09:03.486Z,22.06
2022-08-01T19:13:17.385Z,22.03
2022-08-01T19:17:50.804Z,21.97
2022-08-01T19:22:15.467Z,21.91
2022-08-01T19:26:46.804Z,21.88
2022-08-01T19:31:00.179Z,21.85
2022-08-01T19:35:26.815Z,21.81
2022-08-01T19:40:00.247Z,21.74
2022-08-01T19:44:08.620Z,21.67
2022-08-01T19:48:13.912Z,21.61
2022-08-01T19:52:50.891Z,21.53
2022-08-01T19:57:45.417Z,21.43
2022-08-01T20:02:13.540Z,21.33
2022-08-01T20:06:28.391Z,21.25
2022-08-01T20:10:42.852Z,21.16
2022-08-01T20:15:09.268Z,21.14
2022-08-01T20:19:41.332Z,21.15
2022-08-01T20:23:54.516Z,21.15
2022-08-01T20:28:16.863Z,21.15
2022-08-01T20:32:35.419Z,21.14
2022-08-01T20:37:06.809Z,21.10
2022-08-01T20:41:11.779Z,20.98
2022-08-01T20:45:24.524Z,20.88
2022-08-01T20:49:32.227Z,20.78
2022-08-01T20:53:37.506Z,20.69
2022-08-01T20:58:03.807Z,20.59
2022-08-01T21:02:19.091Z,20.52
2022-08-01T21:06:37.344Z,20.45
2022-08-01T21:10:52.144Z,20.38
2022-08-01T21:14:58.075Z,20.30
2022-08-01T21:19:19.514Z,20.23
2022-08-01T21:23:32.942Z,20.17
2022-08-01T21:28:05.902Z,20.12
2022-08-01T21:32:16.739Z,20.09
2022-08-01T21:36:25.627Z,20.08
2022-08-01T21:40:38.048Z,20.07
2022-08-01T21:44:50.072Z,20.06
2022-08-01T21:49:02.453Z,20.05
2022-08-01T21:53:15.661Z,20.01
2022-08-01T21:57:46.493Z,19.97
2022-08-01T22:02:45.610Z,19.90
2022-08-01T22:07:11.488Z,19.84
2022-08-01T22:11:23.507Z,19.76
2022-08-01T22:15:44.732Z,19.70
2022-08-01T22:19:58.124Z,19.64
2022-08-01T22:24:24.313Z,19.59
2022-08-01T22:28:50.680Z,19.56
2022-08-01T22:33:17.722Z,19.53
2022-08-01T22:37:57.434Z,19.50
2022-08-01T22:42:44.969Z,19.48
2022-08-01T22:46:55.243Z,19.44
2022-08-01T22:51:00.960Z,19.40
2022-08-01T22:55:13.722Z,19.35
2022-08-01T22:59:43.019Z,19.28
2022-08-01T23:03:55.741Z,19.19
2022-08-01T23:08:30.665Z,19.09
2022-08-01T23:13:16.862Z,18.98
2022-08-01T23:17:42.959Z,18.91
2022-08-01T23:22:05.389Z,18.88
2022-08-01T23:26:31.558Z,18.85
2022-08-01T23:31:05.130Z,18.84
2022-08-01T23:40:17.393Z,18.79
2022-08-01T23:44:51.492Z,18.74
2022-08-01T23:49:24.865Z,18.69
2022-08-01T23:53:47.881Z,18.66
